Time;durP1;ratioP1;P1;durP2;ratioP2;P2;SDS_P1;SDS_P2;PMS_P1;PMS_P2;Temp;Humidity;BMP_temperature;BMP_pressure;BME280_temperature;BME280_humidity;BME280_pressure;Samples;Min_cycle;Max_cycle;Signal;HPM_P1;HPM_P2
2023/07/02 00:02:20;;;;;;;6.55;4.07;;;;;;;;;;5070252;28;20032;-67
2023/07/02 00:04:46;;;;;;;7.22;3.95;;;;;;;;;;5080769;28;20024;-63
2023/07/02 00:07:11;;;;;;;6.72;4.03;;;;;;;;;;5086136;28;20570;-60
2023/07/02 00:09:37;;;;;;;7.45;3.97;;;;;;;;;;5086547;28;20084;-67
2023/07/02 00:12:02;;;;;;;7.45;4.05;;;;;;;;;;5086484;27;20553;-67
2023/07/02 00:14:27;;;;;;;6.97;3.95;;;;;;;;;;5086028;28;20148;-64
2023/07/02 00:16:53;;;;;;;6.33;4.10;;;;;;;;;;5079557;27;20699;-63
2023/07/02 00:19:18;;;;;;;6.38;3.90;;;;;;;;;;5067550;28;20266;-65
2023/07/02 00:21:43;;;;;;;6.67;4.43;;;;;;;;;;5087655;27;20020;-64
2023/07/02 00:24:11;;;;;;;7.18;4.55;;;;;;;;;;5066267;28;20848;-64
2023/07/02 00:26:37;;;;;;;7.03;4.32;;;;;;;;;;5090825;28;20038;-67
2023/07/02 00:29:04;;;;;;;7.05;4.25;;;;;;;;;;5084056;28;20058;-68
2023/07/02 00:31:34;;;;;;;7.25;4.03;;;;;;;;;;5082919;28;20708;-63
2023/07/02 00:34:00;;;;;;;7.18;4.05;;;;;;;;;;5076031;28;20355;-63
2023/07/02 00:36:28;;;;;;;5.90;3.90;;;;;;;;;;5091875;28;20092;-67
2023/07/02 00:38:54;;;;;;;7.13;3.83;;;;;;;;;;5088424;27;20039;-68
2023/07/02 00:41:19;;;;;;;10.18;4.68;;;;;;;;;;5094450;28;20164;-66
2023/07/02 00:43:47;;;;;;;8.02;4.45;;;;;;;;;;5092120;27;20028;-65
2023/07/02 00:46:19;;;;;;;7.60;4.68;;;;;;;;;;5087180;27;20026;-65
2023/07/02 00:48:47;;;;;;;7.80;4.13;;;;;;;;;;5090186;28;20055;-66
2023/07/02 00:51:14;;;;;;;8.20;4.22;;;;;;;;;;5086087;28;20795;-67
2023/07/02 00:53:40;;;;;;;6.68;4.50;;;;;;;;;;5091042;28;20020;-66
2023/07/02 00:56:05;;;;;;;7.13;4.13;;;;;;;;;;5092364;28;20462;-66
2023/07/02 00:58:33;;;;;;;7.03;4.40;;;;;;;;;;5084906;28;20285;-66
2023/07/02 01:00:58;;;;;;;6.95;3.92;;;;;;;;;;5065508;28;20338;-64
2023/07/02 01:03:23;;;;;;;7.93;4.53;;;;;;;;;;5093944;28;20428;-66
2023/07/02 01:05:49;;;;;;;7.63;4.40;;;;;;;;;;5076340;28;20259;-66
2023/07/02 01:08:14;;;;;;;6.72;4.10;;;;;;;;;;5100015;28;20720;-66
2023/07/02 01:10:42;;;;;;;7.60;4.43;;;;;;;;;;5095146;28;20043;-67
2023/07/02 01:13:14;;;;;;;7.35;4.32;;;;;;;;;;5085718;28;20263;-66
2023/07/02 01:15:40;;;;;;;8.00;4.70;;;;;;;;;;5094193;28;20082;-68
2023/07/02 01:18:06;;;;;;;6.57;4.47;;;;;;;;;;5084708;28;20107;-68
2023/07/02 01:20:31;;;;;;;7.57;4.22;;;;;;;;;;5091878;28;20023;-64
2023/07/02 01:22:57;;;;;;;9.18;4.90;;;;;;;;;;5073977;28;20110;-68
2023/07/02 01:25:24;;;;;;;7.82;4.40;;;;;;;;;;5085486;28;20020;-67
2023/07/02 01:27:49;;;;;;;7.10;4.38;;;;;;;;;;5072288;28;20066;-67
2023/07/02 01:30:15;;;;;;;7.80;4.00;;;;;;;;;;5082430;28;20549;-67
2023/07/02 01:32:41;;;;;;;8.02;4.57;;;;;;;;;;5078231;28;20024;-65
2023/07/02 01:35:06;;;;;;;6.65;3.88;;;;;;;;;;5077318;28;20031;-64
2023/07/02 01:37:37;;;;;;;6.20;4.30;;;;;;;;;;5094233;28;20500;-65
2023/07/02 01:40:08;;;;;;;6.03;4.03;;;;;;;;;;5093505;28;20548;-65
2023/07/02 01:42:33;;;;;;;9.07;4.30;;;;;;;;;;5087835;28;20066;-63
2023/07/02 01:44:59;;;;;;;8.30;4.10;;;;;;;;;;5096379;28;20073;-60
2023/07/02 01:47:24;;;;;;;6.40;3.97;;;;;;;;;;5090775;27;20170;-65
2023/07/02 01:49:50;;;;;;;6.68;4.45;;;;;;;;;;5076506;28;20131;-66
2023/07/02 01:52:15;;;;;;;7.18;3.80;;;;;;;;;;5095466;27;20478;-67
2023/07/02 01:54:43;;;;;;;6.45;4.30;;;;;;;;;;5080122;28;20023;-65
2023/07/02 01:57:08;;;;;;;6.38;3.95;;;;;;;;;;5087046;27;20119;-65
2023/07/02 01:59:36;;;;;;;6.57;4.28;;;;;;;;;;5090887;27;20089;-67
2023/07/02 02:02:03;;;;;;;6.13;4.05;;;;;;;;;;5092015;27;20548;-67
2023/07/02 02:04:29;;;;;;;8.52;3.85;;;;;;;;;;5094104;28;20028;-65
2023/07/02 02:06:54;;;;;;;7.60;4.20;;;;;;;;;;5095094;27;20539;-67
2023/07/02 02:09:19;;;;;;;7.57;4.20;;;;;;;;;;5075819;28;20268;-68
2023/07/02 02:11:46;;;;;;;6.30;3.90;;;;;;;;;;5078682;28;20146;-68
2023/07/02 02:14:11;;;;;;;6.30;3.47;;;;;;;;;;5078904;27;20281;-67
2023/07/02 02:16:36;;;;;;;7.07;3.90;;;;;;;;;;5074946;28;20170;-67
2023/07/02 02:19:04;;;;;;;6.28;4.05;;;;;;;;;;5095065;27;21568;-67
2023/07/02 02:21:30;;;;;;;6.47;4.22;;;;;;;;;;5082459;28;20026;-64
2023/07/02 02:23:55;;;;;;;7.03;4.10;;;;;;;;;;5090050;27;20024;-63
2023/07/02 02:26:21;;;;;;;9.75;4.35;;;;;;;;;;5094612;27;20108;-67
2023/07/02 02:28:49;;;;;;;7.07;4.03;;;;;;;;;;5070799;28;20020;-67
2023/07/02 02:31:15;;;;;;;6.55;3.67;;;;;;;;;;5076879;28;20027;-67
2023/07/02 02:33:40;;;;;;;6.60;4.10;;;;;;;;;;5091798;27;20023;-68
2023/07/02 02:36:05;;;;;;;6.40;4.00;;;;;;;;;;5078449;28;20046;-68
2023/07/02 02:38:33;;;;;;;6.20;3.80;;;;;;;;;;5074335;28;20322;-68
2023/07/02 02:41:02;;;;;;;6.60;4.40;;;;;;;;;;5083328;28;20328;-62
2023/07/02 02:43:29;;;;;;;6.60;3.90;;;;;;;;;;5073003;28;20123;-67
2023/07/02 02:45:55;;;;;;;8.57;4.07;;;;;;;;;;5087430;27;20124;-66
2023/07/02 02:48:22;;;;;;;6.28;3.97;;;;;;;;;;5089365;28;20066;-67
2023/07/02 02:50:49;;;;;;;7.68;4.43;;;;;;;;;;5093391;28;20039;-67
2023/07/02 02:53:14;;;;;;;6.57;4.30;;;;;;;;;;5072506;28;20027;-67
2023/07/02 02:55:40;;;;;;;6.82;4.10;;;;;;;;;;5092717;28;20257;-66
2023/07/02 02:58:05;;;;;;;6.43;4.10;;;;;;;;;;5071565;28;20128;-63
2023/07/02 03:00:30;;;;;;;7.90;4.57;;;;;;;;;;5075502;27;20261;-67
2023/07/02 03:02:58;;;;;;;9.23;4.80;;;;;;;;;;5073798;28;20023;-64
2023/07/02 03:05:23;;;;;;;7.93;4.10;;;;;;;;;;5072462;28;20074;-67
2023/07/02 03:07:50;;;;;;;8.38;4.55;;;;;;;;;;5092866;27;20506;-64
2023/07/02 03:10:15;;;;;;;6.65;4.20;;;;;;;;;;5088967;27;20106;-62
2023/07/02 03:12:42;;;;;;;7.53;4.20;;;;;;;;;;5096964;28;20020;-68
2023/07/02 03:15:09;;;;;;;6.15;3.72;;;;;;;;;;5070413;28;20028;-65
2023/07/02 03:17:34;;;;;;;6.45;3.92;;;;;;;;;;5078625;28;20459;-67
2023/07/02 03:19:59;;;;;;;7.10;3.88;;;;;;;;;;5088548;27;20102;-67
2023/07/02 03:22:25;;;;;;;6.97;4.23;;;;;;;;;;5088713;27;20022;-64
2023/07/02 03:24:52;;;;;;;6.60;3.97;;;;;;;;;;5088004;28;20253;-66
2023/07/02 03:27:17;;;;;;;6.85;4.20;;;;;;;;;;5069509;28;20631;-66
2023/07/02 03:29:42;;;;;;;7.53;3.70;;;;;;;;;;5072850;28;20043;-65
2023/07/02 03:32:08;;;;;;;7.27;3.67;;;;;;;;;;5075082;28;20127;-64
2023/07/02 03:34:33;;;;;;;6.75;4.10;;;;;;;;;;5080875;28;20766;-68
2023/07/02 03:36:58;;;;;;;6.60;4.20;;;;;;;;;;5085854;28;20027;-65
2023/07/02 03:39:24;;;;;;;7.13;3.72;;;;;;;;;;5067539;28;20266;-66
2023/07/02 03:41:51;;;;;;;6.43;4.10;;;;;;;;;;5079217;28;20020;-66
2023/07/02 03:44:16;;;;;;;8.43;4.05;;;;;;;;;;5074619;28;20317;-66
2023/07/02 03:46:42;;;;;;;10.17;4.30;;;;;;;;;;5087056;28;21363;-66
2023/07/02 03:49:07;;;;;;;6.53;4.05;;;;;;;;;;5087691;28;20261;-62
2023/07/02 03:51:33;;;;;;;9.23;4.00;;;;;;;;;;5091839;28;20036;-67
2023/07/02 03:53:58;;;;;;;6.07;4.05;;;;;;;;;;5086161;27;20671;-66
2023/07/02 03:56:23;;;;;;;7.18;4.25;;;;;;;;;;5077144;28;20007;-64
2023/07/02 03:58:49;;;;;;;9.00;4.10;;;;;;;;;;5067190;28;20028;-66
2023/07/02 04:01:14;;;;;;;7.05;4.68;;;;;;;;;;5095946;28;20019;-67
2023/07/02 04:03:44;;;;;;;7.97;4.38;;;;;;;;;;5077721;28;20128;-67
2023/07/02 04:06:09;;;;;;;6.53;3.92;;;;;;;;;;5076018;28;20028;-67
2023/07/02 04:08:35;;;;;;;7.53;4.63;;;;;;;;;;5095690;28;20234;-63
2023/07/02 04:11:00;;;;;;;6.80;4.47;;;;;;;;;;5084543;27;20914;-67
2023/07/02 04:13:25;;;;;;;6.23;4.23;;;;;;;;;;5077674;28;20023;-65
2023/07/02 04:15:50;;;;;;;7.78;4.65;;;;;;;;;;5072478;28;20048;-66
2023/07/02 04:18:16;;;;;;;9.97;4.50;;;;;;;;;;5085381;28;20491;-67
2023/07/02 04:20:41;;;;;;;7.93;4.73;;;;;;;;;;5068880;28;20269;-66
2023/07/02 04:23:11;;;;;;;6.07;3.80;;;;;;;;;;5091085;27;20326;-65
2023/07/02 04:25:36;;;;;;;7.32;4.05;;;;;;;;;;5071374;28;20012;-66
2023/07/02 04:28:03;;;;;;;6.83;3.93;;;;;;;;;;5090677;27;20024;-66
2023/07/02 04:30:29;;;;;;;6.10;3.70;;;;;;;;;;5066405;28;20361;-63
2023/07/02 04:32:57;;;;;;;6.07;4.03;;;;;;;;;;5075637;28;20032;-68
2023/07/02 04:35:22;;;;;;;6.05;3.80;;;;;;;;;;5089907;28;20249;-66
2023/07/02 04:37:50;;;;;;;11.17;4.50;;;;;;;;;;5092662;28;20138;-69
2023/07/02 04:40:18;;;;;;;13.32;4.20;;;;;;;;;;5069341;28;20263;-68
2023/07/02 04:42:46;;;;;;;7.00;4.03;;;;;;;;;;5097974;28;20820;-66
2023/07/02 04:45:15;;;;;;;6.40;4.00;;;;;;;;;;5083255;28;20483;-64
2023/07/02 04:47:46;;;;;;;7.30;4.45;;;;;;;;;;5095544;28;20027;-67
2023/07/02 04:50:12;;;;;;;7.63;3.85;;;;;;;;;;5069043;28;20016;-64
2023/07/02 04:52:38;;;;;;;7.77;4.30;;;;;;;;;;5065933;28;20081;-66
2023/07/02 04:55:04;;;;;;;7.10;4.15;;;;;;;;;;5074158;28;20273;-65
2023/07/02 04:57:29;;;;;;;6.80;4.50;;;;;;;;;;5087754;28;20816;-65
2023/07/02 04:59:57;;;;;;;7.83;4.20;;;;;;;;;;5092521;27;20027;-67
2023/07/02 05:02:22;;;;;;;9.25;4.20;;;;;;;;;;5073151;28;20288;-65
2023/07/02 05:04:47;;;;;;;6.03;3.97;;;;;;;;;;5093557;28;20079;-64
2023/07/02 05:07:13;;;;;;;7.95;4.20;;;;;;;;;;5084094;28;20098;-67
2023/07/02 05:09:38;;;;;;;6.80;4.33;;;;;;;;;;5091365;28;20028;-63
2023/07/02 05:12:03;;;;;;;6.27;3.83;;;;;;;;;;5066053;28;20032;-67
2023/07/02 05:14:33;;;;;;;5.90;3.90;;;;;;;;;;5081039;28;20302;-62
2023/07/02 05:16:59;;;;;;;6.30;3.90;;;;;;;;;;5062827;28;20052;-66
2023/07/02 05:19:26;;;;;;;7.13;4.10;;;;;;;;;;5065670;28;20497;-66
2023/07/02 05:21:51;;;;;;;7.82;3.78;;;;;;;;;;5075767;28;20110;-67
2023/07/02 05:24:17;;;;;;;8.03;4.20;;;;;;;;;;5080352;28;20024;-67
2023/07/02 05:26:42;;;;;;;7.13;4.10;;;;;;;;;;5082453;28;20272;-66
2023/07/02 05:29:07;;;;;;;6.73;4.03;;;;;;;;;;5069471;28;20997;-67
2023/07/02 05:31:34;;;;;;;6.50;4.07;;;;;;;;;;5083005;28;20318;-66
2023/07/02 05:34:01;;;;;;;6.63;4.20;;;;;;;;;;5085259;28;20277;-65
2023/07/02 05:36:27;;;;;;;6.53;3.97;;;;;;;;;;5066589;28;20028;-68
2023/07/02 05:38:52;;;;;;;7.38;3.85;;;;;;;;;;5087835;28;20022;-66
2023/07/02 05:41:18;;;;;;;6.47;3.90;;;;;;;;;;5088799;28;20052;-66
2023/07/02 05:43:46;;;;;;;5.93;3.58;;;;;;;;;;5070353;28;20385;-67
2023/07/02 05:46:12;;;;;;;6.70;3.90;;;;;;;;;;5072979;28;20873;-68
2023/07/02 05:48:37;;;;;;;6.38;3.83;;;;;;;;;;5087039;28;20044;-66
2023/07/02 05:51:02;;;;;;;6.13;3.85;;;;;;;;;;5081415;28;20020;-69
2023/07/02 05:53:30;;;;;;;6.38;3.95;;;;;;;;;;5088895;28;20062;-68
2023/07/02 05:55:57;;;;;;;6.90;3.78;;;;;;;;;;5073621;28;20082;-65
2023/07/02 05:58:23;;;;;;;5.95;3.70;;;;;;;;;;5062621;28;20028;-68
2023/07/02 06:00:49;;;;;;;6.15;3.80;;;;;;;;;;5081818;28;20035;-64
2023/07/02 06:03:20;;;;;;;8.60;3.92;;;;;;;;;;5085478;28;20027;-68
2023/07/02 06:05:48;;;;;;;6.95;4.10;;;;;;;;;;5073520;28;20069;-67
2023/07/02 06:08:15;;;;;;;6.20;3.70;;;;;;;;;;5084790;28;20035;-67
2023/07/02 06:10:43;;;;;;;7.18;4.18;;;;;;;;;;5090024;28;21018;-66
2023/07/02 06:13:10;;;;;;;7.18;3.97;;;;;;;;;;5085742;28;20032;-66
2023/07/02 06:15:38;;;;;;;6.10;3.60;;;;;;;;;;5084732;28;20045;-65
2023/07/02 06:18:08;;;;;;;6.70;3.90;;;;;;;;;;5045840;28;20021;-65
2023/07/02 06:20:35;;;;;;;6.55;3.78;;;;;;;;;;5054999;28;20024;-68
2023/07/02 06:23:01;;;;;;;7.05;4.10;;;;;;;;;;5050623;28;20058;-66
2023/07/02 06:25:26;;;;;;;6.37;3.80;;;;;;;;;;5071493;28;20813;-64
2023/07/02 06:27:53;;;;;;;7.00;3.90;;;;;;;;;;5051530;28;20111;-66
2023/07/02 06:30:19;;;;;;;6.85;4.05;;;;;;;;;;5071784;28;20024;-65
2023/07/02 06:32:46;;;;;;;6.87;3.60;;;;;;;;;;5068444;28;20050;-67
2023/07/02 06:35:11;;;;;;;7.03;3.88;;;;;;;;;;5052095;28;20251;-63
2023/07/02 06:37:42;;;;;;;7.10;3.63;;;;;;;;;;5072747;28;20104;-65
2023/07/02 06:40:08;;;;;;;6.93;3.67;;;;;;;;;;5049310;28;20020;-65
2023/07/02 06:42:33;;;;;;;7.75;4.03;;;;;;;;;;5066770;28;20024;-67
2023/07/02 06:44:59;;;;;;;7.00;3.80;;;;;;;;;;5068415;28;20035;-62
2023/07/02 06:47:26;;;;;;;7.32;3.85;;;;;;;;;;5056008;28;20020;-64
2023/07/02 06:49:54;;;;;;;6.47;3.65;;;;;;;;;;5072437;28;20055;-64
2023/07/02 06:52:19;;;;;;;5.45;3.40;;;;;;;;;;5047725;28;20036;-67
2023/07/02 06:54:45;;;;;;;8.17;3.97;;;;;;;;;;5053211;28;20020;-67
2023/07/02 06:57:10;;;;;;;5.65;3.55;;;;;;;;;;5072386;28;21022;-67
2023/07/02 06:59:35;;;;;;;11.07;3.97;;;;;;;;;;5057504;28;20021;-68
2023/07/02 07:02:01;;;;;;;5.67;3.67;;;;;;;;;;5053096;28;20258;-67
2023/07/02 07:04:28;;;;;;;5.90;3.95;;;;;;;;;;5076615;28;20257;-66
2023/07/02 07:06:55;;;;;;;5.72;3.50;;;;;;;;;;5063844;28;20012;-69
2023/07/02 07:09:20;;;;;;;6.88;3.85;;;;;;;;;;5051836;28;20024;-67
2023/07/02 07:11:45;;;;;;;5.37;3.50;;;;;;;;;;5071887;28;20043;-68
2023/07/02 07:14:10;;;;;;;5.80;3.70;;;;;;;;;;5073566;28;20249;-68
2023/07/02 07:16:36;;;;;;;6.70;3.90;;;;;;;;;;5055975;28;20067;-65
2023/07/02 07:19:01;;;;;;;6.40;3.95;;;;;;;;;;5060779;28;20023;-69
2023/07/02 07:21:29;;;;;;;5.90;3.63;;;;;;;;;;5074215;28;20016;-68
2023/07/02 07:23:54;;;;;;;5.65;3.58;;;;;;;;;;5069044;28;20983;-68
2023/07/02 07:26:22;;;;;;;5.77;3.47;;;;;;;;;;5055539;28;20016;-68
2023/07/02 07:28:49;;;;;;;7.38;4.10;;;;;;;;;;5069785;28;20028;-66
2023/07/02 07:31:17;;;;;;;7.72;4.30;;;;;;;;;;5074477;28;20046;-68
2023/07/02 07:33:43;;;;;;;5.75;3.50;;;;;;;;;;5067222;28;20027;-65
2023/07/02 07:36:08;;;;;;;6.47;3.80;;;;;;;;;;5050958;28;20031;-64
2023/07/02 07:38:34;;;;;;;7.37;3.60;;;;;;;;;;5068976;28;20016;-64
2023/07/02 07:40:59;;;;;;;6.13;3.47;;;;;;;;;;5071870;28;20138;-61
2023/07/02 07:43:24;;;;;;;6.07;3.28;;;;;;;;;;5057577;28;20055;-67
2023/07/02 07:45:49;;;;;;;5.77;3.33;;;;;;;;;;5055103;28;20386;-67
2023/07/02 07:48:15;;;;;;;5.50;3.47;;;;;;;;;;5056052;28;20255;-69
2023/07/02 07:50:40;;;;;;;7.07;3.30;;;;;;;;;;5061287;28;20243;-67
2023/07/02 07:53:05;;;;;;;6.35;3.50;;;;;;;;;;5068323;28;20282;-65
2023/07/02 07:55:33;;;;;;;6.13;3.60;;;;;;;;;;5075667;28;20222;-65
2023/07/02 07:58:00;;;;;;;5.78;3.17;;;;;;;;;;5069168;28;20423;-67
2023/07/02 08:00:26;;;;;;;5.90;3.03;;;;;;;;;;5049556;28;20024;-66
2023/07/02 08:02:55;;;;;;;5.70;3.53;;;;;;;;;;5066190;28;20020;-64
2023/07/02 08:05:20;;;;;;;6.40;3.60;;;;;;;;;;5071830;28;20024;-68
2023/07/02 08:07:48;;;;;;;6.53;3.33;;;;;;;;;;5070498;28;20016;-65
2023/07/02 08:10:13;;;;;;;7.05;3.67;;;;;;;;;;5077327;28;20020;-67
2023/07/02 08:12:38;;;;;;;6.00;3.30;;;;;;;;;;5070454;28;20020;-64
2023/07/02 08:15:04;;;;;;;6.38;3.60;;;;;;;;;;5056010;28;20268;-66
2023/07/02 08:17:30;;;;;;;6.95;3.80;;;;;;;;;;5069696;28;20074;-66
2023/07/02 08:19:56;;;;;;;5.78;3.60;;;;;;;;;;5066745;28;20483;-63
2023/07/02 08:22:21;;;;;;;6.43;3.85;;;;;;;;;;5050887;28;20035;-68
2023/07/02 08:24:49;;;;;;;5.53;3.50;;;;;;;;;;5054910;28;20759;-64
2023/07/02 08:27:16;;;;;;;5.70;3.40;;;;;;;;;;5071714;28;20386;-63
2023/07/02 08:29:41;;;;;;;5.70;3.05;;;;;;;;;;5066552;28;20490;-68
2023/07/02 08:32:06;;;;;;;5.77;3.40;;;;;;;;;;5055053;28;20032;-67
2023/07/02 08:34:31;;;;;;;8.18;3.65;;;;;;;;;;5069641;28;20497;-63
2023/07/02 08:36:57;;;;;;;7.77;3.73;;;;;;;;;;5070824;28;20027;-67
2023/07/02 08:39:22;;;;;;;8.30;3.80;;;;;;;;;;5060077;28;20812;-67
2023/07/02 08:41:48;;;;;;;6.37;3.60;;;;;;;;;;5051110;28;20266;-66
2023/07/02 08:44:13;;;;;;;7.72;4.20;;;;;;;;;;5059587;28;20270;-67
2023/07/02 08:46:39;;;;;;;6.65;3.92;;;;;;;;;;5052210;28;20024;-64
2023/07/02 08:49:05;;;;;;;7.45;4.28;;;;;;;;;;5071496;28;20020;-63
2023/07/02 08:51:30;;;;;;;7.90;3.80;;;;;;;;;;5065614;28;20538;-66
2023/07/02 08:53:56;;;;;;;6.57;3.93;;;;;;;;;;5053317;28;20030;-65
2023/07/02 08:56:21;;;;;;;6.20;3.60;;;;;;;;;;5070386;28;20026;-66
2023/07/02 08:58:49;;;;;;;6.30;3.60;;;;;;;;;;5052495;28;20120;-64
2023/07/02 09:01:14;;;;;;;6.25;3.10;;;;;;;;;;5052306;28;20597;-67
2023/07/02 09:03:40;;;;;;;5.57;2.80;;;;;;;;;;5068266;28;20024;-65
2023/07/02 09:06:06;;;;;;;5.18;2.45;;;;;;;;;;5053438;28;20024;-67
2023/07/02 09:08:33;;;;;;;5.45;2.85;;;;;;;;;;5065743;28;20359;-64
2023/07/02 09:11:08;;;;;;;6.68;3.25;;;;;;;;;;5066958;28;20027;-66
2023/07/02 09:13:43;;;;;;;4.65;2.72;;;;;;;;;;5069263;28;20020;-68
2023/07/02 09:16:08;;;;;;;5.38;2.85;;;;;;;;;;5068323;28;20086;-65
2023/07/02 09:18:38;;;;;;;5.87;3.80;;;;;;;;;;5079790;28;20412;-65
2023/07/02 09:21:04;;;;;;;6.28;3.90;;;;;;;;;;5069233;28;20016;-67
2023/07/02 09:23:35;;;;;;;7.30;3.97;;;;;;;;;;5065673;28;20016;-65
2023/07/02 09:26:03;;;;;;;6.45;3.60;;;;;;;;;;5066808;28;20024;-67
2023/07/02 09:28:31;;;;;;;6.38;4.20;;;;;;;;;;5071970;28;20052;-64
2023/07/02 09:30:59;;;;;;;6.45;3.72;;;;;;;;;;5049658;28;20028;-66
2023/07/02 09:33:25;;;;;;;6.28;3.28;;;;;;;;;;5053014;28;20491;-65
2023/07/02 09:35:53;;;;;;;6.78;3.83;;;;;;;;;;5053660;28;20037;-66
2023/07/02 09:38:21;;;;;;;6.78;4.25;;;;;;;;;;5068098;28;20695;-67
2023/07/02 09:40:51;;;;;;;6.00;3.88;;;;;;;;;;5053356;28;20053;-64
2023/07/02 09:43:17;;;;;;;6.20;3.80;;;;;;;;;;5064914;28;20520;-67
2023/07/02 09:45:52;;;;;;;5.82;3.90;;;;;;;;;;5073279;28;20032;-67
2023/07/02 09:48:20;;;;;;;6.65;3.80;;;;;;;;;;5067911;28;20787;-63
2023/07/02 09:50:48;;;;;;;6.07;4.00;;;;;;;;;;5071245;28;20024;-67
2023/07/02 09:53:14;;;;;;;8.63;4.15;;;;;;;;;;5048216;28;20016;-66
2023/07/02 09:55:39;;;;;;;7.50;4.28;;;;;;;;;;5070795;28;20024;-65
2023/07/02 09:58:05;;;;;;;5.90;4.03;;;;;;;;;;5058600;28;20048;-64
2023/07/02 10:00:30;;;;;;;6.70;4.20;;;;;;;;;;5071146;28;20112;-66
2023/07/02 10:02:56;;;;;;;6.00;3.83;;;;;;;;;;5069917;28;20135;-67
2023/07/02 10:05:28;;;;;;;5.97;4.27;;;;;;;;;;5074195;28;20024;-67
2023/07/02 10:07:55;;;;;;;7.95;4.40;;;;;;;;;;5054909;28;20285;-65
2023/07/02 10:10:28;;;;;;;7.07;4.13;;;;;;;;;;5065882;28;20383;-62
2023/07/02 10:12:55;;;;;;;6.40;4.00;;;;;;;;;;5066475;28;20028;-67
2023/07/02 10:15:27;;;;;;;6.35;3.97;;;;;;;;;;5067972;28;20111;-66
2023/07/02 10:18:00;;;;;;;5.85;4.07;;;;;;;;;;5062879;28;20476;-65
2023/07/02 10:20:35;;;;;;;5.88;3.90;;;;;;;;;;5051938;28;20032;-67
2023/07/02 10:23:01;;;;;;;6.35;4.15;;;;;;;;;;5076602;28;20035;-65
2023/07/02 10:25:37;;;;;;;5.80;3.90;;;;;;;;;;5054147;28;20024;-67
2023/07/02 10:28:13;;;;;;;6.60;4.40;;;;;;;;;;5083311;28;20016;-67
2023/07/02 10:30:39;;;;;;;5.55;3.75;;;;;;;;;;5054409;28;20039;-65
2023/07/02 10:33:09;;;;;;;6.45;3.95;;;;;;;;;;5053349;28;20024;-65
2023/07/02 10:35:34;;;;;;;6.00;3.90;;;;;;;;;;5068803;28;20016;-67
2023/07/02 10:38:00;;;;;;;6.25;3.92;;;;;;;;;;5064206;28;20027;-61
2023/07/02 10:40:27;;;;;;;5.68;3.97;;;;;;;;;;5065912;28;20615;-66
2023/07/02 10:42:53;;;;;;;6.32;4.35;;;;;;;;;;5065706;28;20020;-65
2023/07/02 10:45:19;;;;;;;6.60;4.13;;;;;;;;;;5059509;28;20031;-68
2023/07/02 10:47:44;;;;;;;5.90;3.95;;;;;;;;;;5048794;28;20266;-67
2023/07/02 10:50:16;;;;;;;6.78;4.10;;;;;;;;;;5056387;28;20027;-66
2023/07/02 10:52:44;;;;;;;5.85;4.00;;;;;;;;;;5072289;28;20093;-66
2023/07/02 10:55:09;;;;;;;6.00;4.05;;;;;;;;;;5068836;28;20020;-67
2023/07/02 10:57:34;;;;;;;6.18;4.10;;;;;;;;;;5053780;28;20020;-67
2023/07/02 11:00:04;;;;;;;6.77;4.63;;;;;;;;;;5053437;28;20098;-66
2023/07/02 11:02:39;;;;;;;5.93;4.28;;;;;;;;;;5059748;28;20262;-64
2023/07/02 11:05:06;;;;;;;6.15;4.25;;;;;;;;;;5068178;28;20505;-67
2023/07/02 11:07:31;;;;;;;6.22;4.70;;;;;;;;;;5053367;28;20037;-67
2023/07/02 11:09:57;;;;;;;6.55;4.38;;;;;;;;;;5056506;28;20043;-65
2023/07/02 11:12:29;;;;;;;6.40;4.60;;;;;;;;;;5068274;28;20055;-64
2023/07/02 11:14:54;;;;;;;6.18;3.92;;;;;;;;;;5070845;28;20111;-65
2023/07/02 11:17:24;;;;;;;5.93;4.47;;;;;;;;;;5066404;28;20047;-66
2023/07/02 11:19:52;;;;;;;6.28;4.38;;;;;;;;;;5069360;28;20755;-66
2023/07/02 11:22:18;;;;;;;5.90;4.10;;;;;;;;;;5072131;28;20028;-66
2023/07/02 11:24:43;;;;;;;5.72;4.10;;;;;;;;;;5054670;28;20044;-63
2023/07/02 11:27:11;;;;;;;7.78;4.53;;;;;;;;;;5055395;28;20021;-63
2023/07/02 11:29:36;;;;;;;6.53;4.22;;;;;;;;;;5052688;28;21172;-67
2023/07/02 11:32:12;;;;;;;6.50;4.70;;;;;;;;;;5051138;28;20092;-63
2023/07/02 11:34:38;;;;;;;6.72;4.47;;;;;;;;;;5054041;28;20016;-66
2023/07/02 11:37:04;;;;;;;7.57;4.50;;;;;;;;;;5065089;28;20031;-66
2023/07/02 11:39:31;;;;;;;7.18;4.70;;;;;;;;;;5073383;28;20023;-66
2023/07/02 11:41:57;;;;;;;6.85;4.70;;;;;;;;;;5071291;28;20024;-67
2023/07/02 11:44:22;;;;;;;7.68;4.55;;;;;;;;;;5056894;28;20098;-67
2023/07/02 11:46:47;;;;;;;6.28;4.90;;;;;;;;;;5063760;28;20431;-67
2023/07/02 11:49:13;;;;;;;7.55;4.88;;;;;;;;;;5058837;28;20066;-66
2023/07/02 11:51:47;;;;;;;7.68;5.20;;;;;;;;;;5063580;28;20101;-66
2023/07/02 11:54:13;;;;;;;7.43;4.75;;;;;;;;;;5064454;28;20047;-63
2023/07/02 11:56:38;;;;;;;5.83;4.17;;;;;;;;;;5057240;28;21239;-65
2023/07/02 11:59:03;;;;;;;8.67;4.67;;;;;;;;;;5062199;28;20550;-65
2023/07/02 12:01:29;;;;;;;6.77;4.30;;;;;;;;;;5072154;28;20039;-64
2023/07/02 12:03:54;;;;;;;6.07;4.57;;;;;;;;;;5065769;28;20287;-65
2023/07/02 12:06:19;;;;;;;7.33;4.60;;;;;;;;;;5053075;28;20285;-66
2023/07/02 12:08:44;;;;;;;6.30;4.70;;;;;;;;;;5053338;28;20288;-67
2023/07/02 12:11:13;;;;;;;6.50;4.47;;;;;;;;;;5069756;28;20257;-66
2023/07/02 12:13:39;;;;;;;6.82;4.82;;;;;;;;;;5053565;28;20012;-65
2023/07/02 12:16:04;;;;;;;7.35;4.47;;;;;;;;;;5051034;28;20052;-65
2023/07/02 12:18:30;;;;;;;6.97;4.67;;;;;;;;;;5091563;28;20099;-67
2023/07/02 12:20:55;;;;;;;6.27;4.50;;;;;;;;;;5066626;28;20101;-63
2023/07/02 12:23:20;;;;;;;7.67;4.30;;;;;;;;;;5090498;27;20027;-67
2023/07/02 12:25:45;;;;;;;8.17;4.47;;;;;;;;;;5068842;28;20371;-67
2023/07/02 12:28:10;;;;;;;6.17;4.57;;;;;;;;;;5068313;28;20024;-66
2023/07/02 12:30:36;;;;;;;6.87;5.00;;;;;;;;;;5082016;28;20925;-64
2023/07/02 12:33:03;;;;;;;6.20;4.40;;;;;;;;;;5075973;28;20491;-67
2023/07/02 12:35:29;;;;;;;6.35;4.13;;;;;;;;;;5073363;28;20529;-63
2023/07/02 12:37:54;;;;;;;6.85;4.82;;;;;;;;;;5092283;28;20031;-65
2023/07/02 12:40:20;;;;;;;8.05;4.18;;;;;;;;;;5073910;28;20016;-63
2023/07/02 12:42:46;;;;;;;7.43;4.45;;;;;;;;;;5085542;28;20024;-65
2023/07/02 12:45:12;;;;;;;6.90;4.28;;;;;;;;;;5092623;28;20012;-68
2023/07/02 12:47:40;;;;;;;6.07;4.03;;;;;;;;;;5089055;28;20028;-66
2023/07/02 12:50:06;;;;;;;6.83;4.53;;;;;;;;;;5080725;28;20095;-66
2023/07/02 12:52:31;;;;;;;6.47;4.55;;;;;;;;;;5071140;28;20503;-65
2023/07/02 12:54:59;;;;;;;6.53;4.13;;;;;;;;;;5088567;27;20020;-67
2023/07/02 12:57:26;;;;;;;7.05;4.53;;;;;;;;;;5090446;28;20054;-67
2023/07/02 12:59:51;;;;;;;6.65;4.15;;;;;;;;;;5091393;28;20050;-67
2023/07/02 13:02:19;;;;;;;6.78;4.40;;;;;;;;;;5071272;28;20122;-68
2023/07/02 13:04:45;;;;;;;6.25;4.28;;;;;;;;;;5071602;28;20442;-66
2023/07/02 13:07:10;;;;;;;7.17;4.20;;;;;;;;;;5072200;28;20470;-67
2023/07/02 13:09:35;;;;;;;5.97;3.97;;;;;;;;;;5071256;28;20012;-66
2023/07/02 13:12:02;;;;;;;6.90;4.03;;;;;;;;;;5091695;28;20131;-65
2023/07/02 13:14:28;;;;;;;6.32;4.13;;;;;;;;;;5083861;28;20007;-68
2023/07/02 13:16:53;;;;;;;6.13;3.80;;;;;;;;;;5081366;28;20056;-65
2023/07/02 13:19:18;;;;;;;7.20;4.10;;;;;;;;;;5048615;28;20033;-65
2023/07/02 13:21:43;;;;;;;6.35;4.03;;;;;;;;;;5069602;28;20028;-65
2023/07/02 13:24:11;;;;;;;6.70;3.97;;;;;;;;;;5047808;28;20044;-65
2023/07/02 13:26:36;;;;;;;6.15;3.40;;;;;;;;;;5061342;28;20437;-64
2023/07/02 13:29:01;;;;;;;6.03;3.70;;;;;;;;;;5067164;28;20024;-66
2023/07/02 13:31:26;;;;;;;7.40;3.80;;;;;;;;;;5073142;28;20308;-67
2023/07/02 13:33:52;;;;;;;6.07;3.73;;;;;;;;;;5061619;28;20020;-64
2023/07/02 13:36:17;;;;;;;6.73;3.63;;;;;;;;;;5053636;28;20493;-67
2023/07/02 13:38:45;;;;;;;11.20;3.47;;;;;;;;;;5069787;28;20261;-66
2023/07/02 13:41:10;;;;;;;6.15;3.95;;;;;;;;;;5069448;28;20243;-65
2023/07/02 13:43:38;;;;;;;6.50;3.90;;;;;;;;;;5073888;28;20034;-65
2023/07/02 13:46:04;;;;;;;7.20;3.72;;;;;;;;;;5064774;28;20111;-68
2023/07/02 13:48:29;;;;;;;6.57;3.70;;;;;;;;;;5059156;28;20038;-66
2023/07/02 13:50:55;;;;;;;5.60;3.60;;;;;;;;;;5073662;28;20051;-67
2023/07/02 13:53:20;;;;;;;6.28;3.70;;;;;;;;;;5054213;28;20026;-67
2023/07/02 13:55:45;;;;;;;6.17;3.80;;;;;;;;;;5057791;28;20105;-65
2023/07/02 13:58:10;;;;;;;6.15;3.60;;;;;;;;;;5067467;28;20011;-67
2023/07/02 14:00:38;;;;;;;6.10;3.90;;;;;;;;;;5065140;28;20166;-68
2023/07/02 14:03:04;;;;;;;5.63;3.38;;;;;;;;;;5071884;28;20049;-68
2023/07/02 14:05:29;;;;;;;6.70;3.67;;;;;;;;;;5067886;28;20032;-63
2023/07/02 14:07:54;;;;;;;6.10;3.83;;;;;;;;;;5072797;28;20656;-67
2023/07/02 14:10:20;;;;;;;6.47;3.57;;;;;;;;;;5068579;28;20031;-63
2023/07/02 14:12:45;;;;;;;6.25;3.40;;;;;;;;;;5057026;28;20036;-66
2023/07/02 14:15:10;;;;;;;6.37;3.97;;;;;;;;;;5075334;28;20015;-68
2023/07/02 14:17:36;;;;;;;6.27;3.67;;;;;;;;;;5071515;28;20044;-67
2023/07/02 14:20:02;;;;;;;6.60;3.55;;;;;;;;;;5065663;28;20064;-66
2023/07/02 14:22:30;;;;;;;6.10;3.90;;;;;;;;;;5074997;28;20036;-64
2023/07/02 14:24:58;;;;;;;5.72;3.45;;;;;;;;;;5049658;28;20023;-65
2023/07/02 14:27:23;;;;;;;6.07;3.38;;;;;;;;;;5070674;28;20013;-66
2023/07/02 14:29:48;;;;;;;7.40;3.30;;;;;;;;;;5067726;28;20027;-66
2023/07/02 14:32:14;;;;;;;8.07;3.50;;;;;;;;;;5064093;28;20842;-67
2023/07/02 14:34:42;;;;;;;6.13;3.22;;;;;;;;;;5054042;28;20025;-67
2023/07/02 14:37:07;;;;;;;7.60;3.58;;;;;;;;;;5072294;28;20017;-66
2023/07/02 14:39:35;;;;;;;5.45;3.20;;;;;;;;;;5044394;28;20952;-65